sensor_id;sensor_type;location;lat;lon;timestamp;P1;durP1;ratioP1;P2;durP2;ratioP2
17955;SDS011;27666;51.498;11.966;2023-06-14T00:01:58;3.20;;;2.70;;
17955;SDS011;27666;51.498;11.966;2023-06-14T00:04:45;2.70;;;2.50;;
17955;SDS011;27666;51.498;11.966;2023-06-14T00:07:33;2.57;;;2.37;;
17955;SDS011;27666;51.498;11.966;2023-06-14T00:10:22;2.70;;;2.50;;
17955;SDS011;27666;51.498;11.966;2023-06-14T00:13:08;5.83;;;2.80;;
17955;SDS011;27666;51.498;11.966;2023-06-14T00:15:55;2.70;;;2.50;;
17955;SDS011;27666;51.498;11.966;2023-06-14T00:18:41;4.43;;;2.73;;
17955;SDS011;27666;51.498;11.966;2023-06-14T00:21:28;3.97;;;2.70;;
17955;SDS011;27666;51.498;11.966;2023-06-14T00:24:14;3.37;;;2.97;;
17955;SDS011;27666;51.498;11.966;2023-06-14T00:27:02;4.40;;;2.90;;
17955;SDS011;27666;51.498;11.966;2023-06-14T00:29:54;3.07;;;2.70;;
17955;SDS011;27666;51.498;11.966;2023-06-14T00:32:41;3.10;;;2.80;;
17955;SDS011;27666;51.498;11.966;2023-06-14T00:35:29;4.40;;;3.07;;
17955;SDS011;27666;51.498;11.966;2023-06-14T00:38:15;5.60;;;2.90;;
17955;SDS011;27666;51.498;11.966;2023-06-14T00:41:01;3.87;;;2.70;;
17955;SDS011;27666;51.498;11.966;2023-06-14T00:43:50;3.43;;;2.53;;
17955;SDS011;27666;51.498;11.966;2023-06-14T00:46:38;5.60;;;3.30;;
17955;SDS011;27666;51.498;11.966;2023-06-14T00:49:25;3.37;;;3.07;;
17955;SDS011;27666;51.498;11.966;2023-06-14T00:52:12;3.33;;;2.63;;
17955;SDS011;27666;51.498;11.966;2023-06-14T00:54:59;4.13;;;3.10;;
17955;SDS011;27666;51.498;11.966;2023-06-14T00:57:46;4.10;;;3.07;;
17955;SDS011;27666;51.498;11.966;2023-06-14T01:00:34;4.40;;;2.60;;
17955;SDS011;27666;51.498;11.966;2023-06-14T01:03:20;4.20;;;2.90;;
17955;SDS011;27666;51.498;11.966;2023-06-14T01:06:11;3.30;;;3.00;;
17955;SDS011;27666;51.498;11.966;2023-06-14T01:09:14;3.47;;;3.17;;
17955;SDS011;27666;51.498;11.966;2023-06-14T01:12:07;3.23;;;2.93;;
17955;SDS011;27666;51.498;11.966;2023-06-14T01:15:07;4.93;;;3.30;;
17955;SDS011;27666;51.498;11.966;2023-06-14T01:17:55;3.37;;;2.97;;
17955;SDS011;27666;51.498;11.966;2023-06-14T01:20:48;3.80;;;3.03;;
17955;SDS011;27666;51.498;11.966;2023-06-14T01:23:36;3.13;;;2.83;;
17955;SDS011;27666;51.498;11.966;2023-06-14T01:26:23;3.40;;;3.00;;
17955;SDS011;27666;51.498;11.966;2023-06-14T01:29:11;6.27;;;2.83;;
17955;SDS011;27666;51.498;11.966;2023-06-14T01:32:03;3.80;;;2.63;;
17955;SDS011;27666;51.498;11.966;2023-06-14T01:34:50;3.80;;;2.97;;
17955;SDS011;27666;51.498;11.966;2023-06-14T01:37:37;4.63;;;3.00;;
17955;SDS011;27666;51.498;11.966;2023-06-14T01:40:25;5.50;;;3.40;;
17955;SDS011;27666;51.498;11.966;2023-06-14T01:43:13;3.47;;;3.17;;
17955;SDS011;27666;51.498;11.966;2023-06-14T01:46:02;3.87;;;3.47;;
17955;SDS011;27666;51.498;11.966;2023-06-14T01:48:49;4.57;;;2.80;;
17955;SDS011;27666;51.498;11.966;2023-06-14T01:51:36;3.20;;;2.90;;
17955;SDS011;27666;51.498;11.966;2023-06-14T01:54:22;5.40;;;3.07;;
17955;SDS011;27666;51.498;11.966;2023-06-14T01:57:11;3.77;;;3.27;;
17955;SDS011;27666;51.498;11.966;2023-06-14T01:59:58;3.80;;;3.30;;
17955;SDS011;27666;51.498;11.966;2023-06-14T02:02:45;3.53;;;3.23;;
17955;SDS011;27666;51.498;11.966;2023-06-14T02:05:32;4.97;;;2.87;;
17955;SDS011;27666;51.498;11.966;2023-06-14T02:08:19;5.40;;;3.00;;
17955;SDS011;27666;51.498;11.966;2023-06-14T02:11:06;3.40;;;3.10;;
17955;SDS011;27666;51.498;11.966;2023-06-14T02:13:54;6.10;;;3.47;;
17955;SDS011;27666;51.498;11.966;2023-06-14T02:16:41;3.80;;;3.10;;
17955;SDS011;27666;51.498;11.966;2023-06-14T02:19:33;4.30;;;3.30;;
17955;SDS011;27666;51.498;11.966;2023-06-14T02:22:20;5.33;;;3.07;;
17955;SDS011;27666;51.498;11.966;2023-06-14T02:25:07;4.87;;;3.27;;
17955;SDS011;27666;51.498;11.966;2023-06-14T02:27:54;6.67;;;3.20;;
17955;SDS011;27666;51.498;11.966;2023-06-14T02:30:43;5.43;;;3.13;;
17955;SDS011;27666;51.498;11.966;2023-06-14T02:33:29;5.70;;;3.33;;
17955;SDS011;27666;51.498;11.966;2023-06-14T02:36:16;5.43;;;3.13;;
17955;SDS011;27666;51.498;11.966;2023-06-14T02:39:02;5.47;;;3.03;;
17955;SDS011;27666;51.498;11.966;2023-06-14T02:41:49;6.00;;;3.30;;
17955;SDS011;27666;51.498;11.966;2023-06-14T02:44:37;3.43;;;3.00;;
17955;SDS011;27666;51.498;11.966;2023-06-14T02:47:28;4.03;;;3.07;;
17955;SDS011;27666;51.498;11.966;2023-06-14T02:50:15;3.10;;;2.80;;
17955;SDS011;27666;51.498;11.966;2023-06-14T02:53:02;4.77;;;3.20;;
17955;SDS011;27666;51.498;11.966;2023-06-14T02:55:49;3.83;;;3.20;;
17955;SDS011;27666;51.498;11.966;2023-06-14T02:58:40;4.10;;;3.40;;
17955;SDS011;27666;51.498;11.966;2023-06-14T03:01:29;4.07;;;3.50;;
17955;SDS011;27666;51.498;11.966;2023-06-14T03:04:21;3.40;;;3.10;;
17955;SDS011;27666;51.498;11.966;2023-06-14T03:07:07;3.77;;;3.07;;
17955;SDS011;27666;51.498;11.966;2023-06-14T03:09:56;3.47;;;3.17;;
17955;SDS011;27666;51.498;11.966;2023-06-14T03:12:43;5.10;;;3.33;;
17955;SDS011;27666;51.498;11.966;2023-06-14T03:15:29;3.93;;;3.30;;
17955;SDS011;27666;51.498;11.966;2023-06-14T03:18:16;5.73;;;3.20;;
17955;SDS011;27666;51.498;11.966;2023-06-14T03:21:05;3.30;;;3.00;;
17955;SDS011;27666;51.498;11.966;2023-06-14T03:23:54;5.00;;;3.50;;
17955;SDS011;27666;51.498;11.966;2023-06-14T03:26:41;4.90;;;3.40;;
17955;SDS011;27666;51.498;11.966;2023-06-14T03:29:27;3.40;;;3.10;;
17955;SDS011;27666;51.498;11.966;2023-06-14T03:32:14;4.23;;;3.50;;
17955;SDS011;27666;51.498;11.966;2023-06-14T03:35:00;3.57;;;3.27;;
17955;SDS011;27666;51.498;11.966;2023-06-14T03:37:48;3.87;;;3.43;;
17955;SDS011;27666;51.498;11.966;2023-06-14T03:40:35;4.50;;;3.33;;
17955;SDS011;27666;51.498;11.966;2023-06-14T03:43:21;6.20;;;3.60;;
17955;SDS011;27666;51.498;11.966;2023-06-14T03:46:08;5.57;;;3.13;;
17955;SDS011;27666;51.498;11.966;2023-06-14T03:48:54;7.20;;;3.43;;
17955;SDS011;27666;51.498;11.966;2023-06-14T03:51:40;4.10;;;2.93;;
17955;SDS011;27666;51.498;11.966;2023-06-14T03:54:28;7.63;;;3.30;;
17955;SDS011;27666;51.498;11.966;2023-06-14T03:57:20;4.67;;;3.47;;
17955;SDS011;27666;51.498;11.966;2023-06-14T04:00:07;3.73;;;3.30;;
17955;SDS011;27666;51.498;11.966;2023-06-14T04:02:56;3.93;;;3.03;;
17955;SDS011;27666;51.498;11.966;2023-06-14T04:05:43;6.77;;;3.70;;
17955;SDS011;27666;51.498;11.966;2023-06-14T04:08:34;5.13;;;3.60;;
17955;SDS011;27666;51.498;11.966;2023-06-14T04:11:22;4.10;;;3.40;;
17955;SDS011;27666;51.498;11.966;2023-06-14T04:14:10;3.60;;;3.30;;
17955;SDS011;27666;51.498;11.966;2023-06-14T04:16:57;7.57;;;3.53;;
17955;SDS011;27666;51.498;11.966;2023-06-14T04:19:45;5.97;;;4.00;;
17955;SDS011;27666;51.498;11.966;2023-06-14T04:22:32;4.50;;;3.57;;
17955;SDS011;27666;51.498;11.966;2023-06-14T04:25:19;4.13;;;3.40;;
17955;SDS011;27666;51.498;11.966;2023-06-14T04:28:11;5.93;;;3.63;;
17955;SDS011;27666;51.498;11.966;2023-06-14T04:30:58;6.13;;;3.67;;
17955;SDS011;27666;51.498;11.966;2023-06-14T04:33:47;4.28;;;3.63;;
17955;SDS011;27666;51.498;11.966;2023-06-14T04:36:38;3.70;;;3.40;;
17955;SDS011;27666;51.498;11.966;2023-06-14T04:39:26;6.72;;;3.75;;
17955;SDS011;27666;51.498;11.966;2023-06-14T04:42:13;5.45;;;3.45;;
17955;SDS011;27666;51.498;11.966;2023-06-14T04:45:02;6.57;;;3.42;;
17955;SDS011;27666;51.498;11.966;2023-06-14T04:47:49;4.22;;;3.65;;
17955;SDS011;27666;51.498;11.966;2023-06-14T04:50:42;5.60;;;3.78;;
17955;SDS011;27666;51.498;11.966;2023-06-14T04:53:30;5.10;;;3.78;;
17955;SDS011;27666;51.498;11.966;2023-06-14T04:56:16;4.03;;;3.55;;
17955;SDS011;27666;51.498;11.966;2023-06-14T04:59:03;5.85;;;4.45;;
17955;SDS011;27666;51.498;11.966;2023-06-14T05:01:51;6.55;;;4.05;;
17955;SDS011;27666;51.498;11.966;2023-06-14T05:04:38;8.73;;;3.58;;
17955;SDS011;27666;51.498;11.966;2023-06-14T05:07:25;5.80;;;3.70;;
17955;SDS011;27666;51.498;11.966;2023-06-14T05:10:11;5.43;;;4.35;;
17955;SDS011;27666;51.498;11.966;2023-06-14T05:12:58;4.85;;;4.28;;
17955;SDS011;27666;51.498;11.966;2023-06-14T05:15:45;4.45;;;3.90;;
17955;SDS011;27666;51.498;11.966;2023-06-14T05:18:36;4.60;;;4.10;;
17955;SDS011;27666;51.498;11.966;2023-06-14T05:21:25;4.20;;;3.80;;
17955;SDS011;27666;51.498;11.966;2023-06-14T05:24:11;6.38;;;4.13;;
17955;SDS011;27666;51.498;11.966;2023-06-14T05:26:58;7.35;;;4.45;;
17955;SDS011;27666;51.498;11.966;2023-06-14T05:29:45;4.95;;;3.95;;
17955;SDS011;27666;51.498;11.966;2023-06-14T05:32:31;5.15;;;4.57;;
17955;SDS011;27666;51.498;11.966;2023-06-14T05:35:19;6.78;;;4.22;;
17955;SDS011;27666;51.498;11.966;2023-06-14T05:38:08;8.82;;;4.50;;
17955;SDS011;27666;51.498;11.966;2023-06-14T05:40:55;7.25;;;4.47;;
17955;SDS011;27666;51.498;11.966;2023-06-14T05:43:41;5.80;;;4.20;;
17955;SDS011;27666;51.498;11.966;2023-06-14T05:46:28;8.43;;;4.00;;
17955;SDS011;27666;51.498;11.966;2023-06-14T05:49:15;5.05;;;4.55;;
17955;SDS011;27666;51.498;11.966;2023-06-14T05:52:02;6.35;;;3.95;;
17955;SDS011;27666;51.498;11.966;2023-06-14T05:54:49;6.82;;;5.00;;
17955;SDS011;27666;51.498;11.966;2023-06-14T05:57:36;4.97;;;4.30;;
17955;SDS011;27666;51.498;11.966;2023-06-14T06:00:24;7.20;;;4.57;;
17955;SDS011;27666;51.498;11.966;2023-06-14T06:03:11;6.00;;;4.38;;
17955;SDS011;27666;51.498;11.966;2023-06-14T06:05:59;5.43;;;4.38;;
17955;SDS011;27666;51.498;11.966;2023-06-14T06:08:49;4.30;;;3.90;;
17955;SDS011;27666;51.498;11.966;2023-06-14T06:11:35;4.82;;;4.40;;
17955;SDS011;27666;51.498;11.966;2023-06-14T06:14:37;5.47;;;4.97;;
17955;SDS011;27666;51.498;11.966;2023-06-14T06:17:24;5.72;;;4.82;;
17955;SDS011;27666;51.498;11.966;2023-06-14T06:20:23;5.38;;;4.78;;
17955;SDS011;27666;51.498;11.966;2023-06-14T06:23:14;9.18;;;4.50;;
17955;SDS011;27666;51.498;11.966;2023-06-14T06:26:01;5.15;;;4.50;;
17955;SDS011;27666;51.498;11.966;2023-06-14T06:28:49;7.47;;;4.78;;
17955;SDS011;27666;51.498;11.966;2023-06-14T06:31:35;5.95;;;5.43;;
17955;SDS011;27666;51.498;11.966;2023-06-14T06:34:22;6.75;;;4.47;;
17955;SDS011;27666;51.498;11.966;2023-06-14T06:37:09;5.82;;;4.72;;
17955;SDS011;27666;51.498;11.966;2023-06-14T06:39:55;6.20;;;4.78;;
17955;SDS011;27666;51.498;11.966;2023-06-14T06:42:44;7.05;;;4.72;;
17955;SDS011;27666;51.498;11.966;2023-06-14T06:45:30;7.07;;;4.55;;
17955;SDS011;27666;51.498;11.966;2023-06-14T06:48:17;6.82;;;4.85;;
17955;SDS011;27666;51.498;11.966;2023-06-14T06:51:03;5.10;;;4.60;;
17955;SDS011;27666;51.498;11.966;2023-06-14T06:53:52;8.88;;;4.45;;
17955;SDS011;27666;51.498;11.966;2023-06-14T06:56:39;4.82;;;4.30;;
17955;SDS011;27666;51.498;11.966;2023-06-14T06:59:27;8.25;;;4.13;;
17955;SDS011;27666;51.498;11.966;2023-06-14T07:02:14;4.65;;;4.20;;
17955;SDS011;27666;51.498;11.966;2023-06-14T07:05:00;5.40;;;4.30;;
17955;SDS011;27666;51.498;11.966;2023-06-14T07:07:47;5.43;;;3.90;;
17955;SDS011;27666;51.498;11.966;2023-06-14T07:10:34;5.65;;;3.83;;
17955;SDS011;27666;51.498;11.966;2023-06-14T07:13:22;5.72;;;4.30;;
17955;SDS011;27666;51.498;11.966;2023-06-14T07:16:09;7.65;;;3.95;;
17955;SDS011;27666;51.498;11.966;2023-06-14T07:18:56;6.93;;;4.35;;
17955;SDS011;27666;51.498;11.966;2023-06-14T07:21:44;4.80;;;4.15;;
17955;SDS011;27666;51.498;11.966;2023-06-14T07:24:31;4.18;;;3.78;;
17955;SDS011;27666;51.498;11.966;2023-06-14T07:27:17;5.40;;;4.85;;
17955;SDS011;27666;51.498;11.966;2023-06-14T07:30:08;4.13;;;3.58;;
17955;SDS011;27666;51.498;11.966;2023-06-14T07:32:56;4.47;;;4.00;;
17955;SDS011;27666;51.498;11.966;2023-06-14T07:35:43;6.25;;;3.78;;
17955;SDS011;27666;51.498;11.966;2023-06-14T07:38:30;4.00;;;3.60;;
17955;SDS011;27666;51.498;11.966;2023-06-14T07:41:17;7.00;;;4.03;;
17955;SDS011;27666;51.498;11.966;2023-06-14T07:44:03;4.57;;;4.03;;
17955;SDS011;27666;51.498;11.966;2023-06-14T07:46:50;4.18;;;3.72;;
17955;SDS011;27666;51.498;11.966;2023-06-14T07:49:38;4.60;;;3.97;;
17955;SDS011;27666;51.498;11.966;2023-06-14T07:52:26;4.90;;;3.85;;
17955;SDS011;27666;51.498;11.966;2023-06-14T07:55:13;4.05;;;3.63;;
17955;SDS011;27666;51.498;11.966;2023-06-14T07:58:00;7.60;;;4.05;;
17955;SDS011;27666;51.498;11.966;2023-06-14T08:00:47;5.55;;;3.60;;
17955;SDS011;27666;51.498;11.966;2023-06-14T08:03:34;5.28;;;3.63;;
17955;SDS011;27666;51.498;11.966;2023-06-14T08:06:22;7.90;;;4.07;;
17955;SDS011;27666;51.498;11.966;2023-06-14T08:09:10;7.57;;;4.18;;
17955;SDS011;27666;51.498;11.966;2023-06-14T08:11:56;4.05;;;3.50;;
17955;SDS011;27666;51.498;11.966;2023-06-14T08:14:44;4.43;;;4.03;;
17955;SDS011;27666;51.498;11.966;2023-06-14T08:17:38;4.20;;;3.80;;
17955;SDS011;27666;51.498;11.966;2023-06-14T08:20:25;7.00;;;3.72;;
17955;SDS011;27666;51.498;11.966;2023-06-14T08:23:13;5.45;;;3.47;;
17955;SDS011;27666;51.498;11.966;2023-06-14T08:26:04;4.60;;;3.75;;
17955;SDS011;27666;51.498;11.966;2023-06-14T08:28:50;7.90;;;4.00;;
17955;SDS011;27666;51.498;11.966;2023-06-14T08:31:38;5.65;;;4.00;;
17955;SDS011;27666;51.498;11.966;2023-06-14T08:34:25;4.78;;;3.95;;
17955;SDS011;27666;51.498;11.966;2023-06-14T08:37:12;5.25;;;3.92;;
17955;SDS011;27666;51.498;11.966;2023-06-14T08:39:59;4.22;;;3.83;;
17955;SDS011;27666;51.498;11.966;2023-06-14T08:42:51;5.25;;;3.80;;
17955;SDS011;27666;51.498;11.966;2023-06-14T08:45:38;4.22;;;3.60;;
17955;SDS011;27666;51.498;11.966;2023-06-14T08:48:25;5.00;;;4.05;;
17955;SDS011;27666;51.498;11.966;2023-06-14T08:51:12;5.05;;;4.50;;
17955;SDS011;27666;51.498;11.966;2023-06-14T08:54:00;4.88;;;4.15;;
17955;SDS011;27666;51.498;11.966;2023-06-14T08:56:50;4.97;;;3.75;;
17955;SDS011;27666;51.498;11.966;2023-06-14T08:59:39;6.10;;;3.67;;
17955;SDS011;27666;51.498;11.966;2023-06-14T09:02:33;7.45;;;3.70;;
17955;SDS011;27666;51.498;11.966;2023-06-14T09:05:20;6.32;;;3.90;;
17955;SDS011;27666;51.498;11.966;2023-06-14T09:08:06;4.22;;;3.83;;
17955;SDS011;27666;51.498;11.966;2023-06-14T09:10:52;6.05;;;3.75;;
17955;SDS011;27666;51.498;11.966;2023-06-14T09:13:41;5.72;;;4.28;;
17955;SDS011;27666;51.498;11.966;2023-06-14T09:16:28;3.70;;;3.40;;
17955;SDS011;27666;51.498;11.966;2023-06-14T09:19:20;4.78;;;4.00;;
17955;SDS011;27666;51.498;11.966;2023-06-14T09:22:07;5.32;;;3.60;;
17955;SDS011;27666;51.498;11.966;2023-06-14T09:24:56;4.30;;;3.90;;
17955;SDS011;27666;51.498;11.966;2023-06-14T09:27:42;7.82;;;3.95;;
17955;SDS011;27666;51.498;11.966;2023-06-14T09:30:30;3.70;;;3.30;;
17955;SDS011;27666;51.498;11.966;2023-06-14T09:33:16;5.00;;;3.70;;
17955;SDS011;27666;51.498;11.966;2023-06-14T09:36:03;4.10;;;3.70;;
17955;SDS011;27666;51.498;11.966;2023-06-14T09:38:54;5.10;;;3.58;;
17955;SDS011;27666;51.498;11.966;2023-06-14T09:41:43;4.97;;;3.35;;
17955;SDS011;27666;51.498;11.966;2023-06-14T09:44:30;5.82;;;3.40;;
17955;SDS011;27666;51.498;11.966;2023-06-14T09:47:18;7.30;;;3.60;;
17955;SDS011;27666;51.498;11.966;2023-06-14T09:50:06;5.90;;;3.22;;
17955;SDS011;27666;51.498;11.966;2023-06-14T09:52:52;5.60;;;3.55;;
17955;SDS011;27666;51.498;11.966;2023-06-14T09:55:44;3.28;;;2.97;;
17955;SDS011;27666;51.498;11.966;2023-06-14T09:58:32;3.55;;;3.00;;
17955;SDS011;27666;51.498;11.966;2023-06-14T10:01:25;5.28;;;3.10;;
17955;SDS011;27666;51.498;11.966;2023-06-14T10:04:16;5.78;;;2.78;;
17955;SDS011;27666;51.498;11.966;2023-06-14T10:07:07;4.25;;;3.08;;
17955;SDS011;27666;51.498;11.966;2023-06-14T10:09:54;3.30;;;3.00;;
17955;SDS011;27666;51.498;11.966;2023-06-14T10:12:41;3.10;;;2.80;;
17955;SDS011;27666;51.498;11.966;2023-06-14T10:15:29;3.42;;;3.13;;
17955;SDS011;27666;51.498;11.966;2023-06-14T10:18:19;3.53;;;3.05;;
17955;SDS011;27666;51.498;11.966;2023-06-14T10:21:18;3.65;;;2.75;;
17955;SDS011;27666;51.498;11.966;2023-06-14T10:24:15;3.60;;;2.65;;
17955;SDS011;27666;51.498;11.966;2023-06-14T10:27:05;3.08;;;2.78;;
17955;SDS011;27666;51.498;11.966;2023-06-14T10:30:02;4.43;;;3.03;;
17955;SDS011;27666;51.498;11.966;2023-06-14T10:33:06;3.30;;;3.00;;
17955;SDS011;27666;51.498;11.966;2023-06-14T10:36:06;3.17;;;2.88;;
17955;SDS011;27666;51.498;11.966;2023-06-14T10:38:59;4.18;;;3.05;;
17955;SDS011;27666;51.498;11.966;2023-06-14T10:41:50;3.50;;;3.15;;
17955;SDS011;27666;51.498;11.966;2023-06-14T10:44:41;5.15;;;2.67;;
17955;SDS011;27666;51.498;11.966;2023-06-14T10:47:29;4.78;;;2.58;;
17955;SDS011;27666;51.498;11.966;2023-06-14T10:50:16;3.97;;;2.95;;
17955;SDS011;27666;51.498;11.966;2023-06-14T10:53:13;4.50;;;3.15;;
17955;SDS011;27666;51.498;11.966;2023-06-14T10:56:09;3.50;;;3.03;;
17955;SDS011;27666;51.498;11.966;2023-06-14T10:59:11;3.47;;;3.17;;
17955;SDS011;27666;51.498;11.966;2023-06-14T11:01:58;5.70;;;3.08;;
17955;SDS011;27666;51.498;11.966;2023-06-14T11:05:10;4.70;;;3.20;;
17955;SDS011;27666;51.498;11.966;2023-06-14T11:08:11;2.70;;;2.50;;
17955;SDS011;27666;51.498;11.966;2023-06-14T11:11:15;3.65;;;3.22;;
17955;SDS011;27666;51.498;11.966;2023-06-14T11:14:02;3.90;;;3.00;;
17955;SDS011;27666;51.498;11.966;2023-06-14T11:16:48;3.90;;;3.17;;
17955;SDS011;27666;51.498;11.966;2023-06-14T11:19:35;4.95;;;3.20;;
17955;SDS011;27666;51.498;11.966;2023-06-14T11:22:22;4.05;;;3.20;;
17955;SDS011;27666;51.498;11.966;2023-06-14T11:25:08;3.58;;;3.10;;
17955;SDS011;27666;51.498;11.966;2023-06-14T11:27:57;3.78;;;3.47;;
17955;SDS011;27666;51.498;11.966;2023-06-14T11:30:44;5.97;;;3.67;;
17955;SDS011;27666;51.498;11.966;2023-06-14T11:33:31;4.57;;;3.05;;
17955;SDS011;27666;51.498;11.966;2023-06-14T11:36:17;4.18;;;3.33;;
17955;SDS011;27666;51.498;11.966;2023-06-14T11:39:04;4.00;;;3.35;;
17955;SDS011;27666;51.498;11.966;2023-06-14T11:41:53;4.22;;;3.40;;
17955;SDS011;27666;51.498;11.966;2023-06-14T11:44:41;3.47;;;3.17;;
17955;SDS011;27666;51.498;11.966;2023-06-14T11:47:31;9.10;;;3.55;;
17955;SDS011;27666;51.498;11.966;2023-06-14T11:50:18;4.97;;;3.53;;
17955;SDS011;27666;51.498;11.966;2023-06-14T11:53:07;3.60;;;3.30;;
17955;SDS011;27666;51.498;11.966;2023-06-14T11:55:55;7.40;;;3.65;;
17955;SDS011;27666;51.498;11.966;2023-06-14T11:58:42;5.18;;;3.72;;
17955;SDS011;27666;51.498;11.966;2023-06-14T12:01:30;4.50;;;3.92;;
17955;SDS011;27666;51.498;11.966;2023-06-14T12:04:23;5.45;;;3.70;;
17955;SDS011;27666;51.498;11.966;2023-06-14T12:07:12;7.22;;;3.92;;
17955;SDS011;27666;51.498;11.966;2023-06-14T12:10:03;4.00;;;3.60;;
17955;SDS011;27666;51.498;11.966;2023-06-14T12:12:56;5.43;;;4.13;;
17955;SDS011;27666;51.498;11.966;2023-06-14T12:15:44;4.13;;;3.72;;
17955;SDS011;27666;51.498;11.966;2023-06-14T12:18:35;5.22;;;4.35;;
17955;SDS011;27666;51.498;11.966;2023-06-14T12:21:23;5.55;;;3.95;;
17955;SDS011;27666;51.498;11.966;2023-06-14T12:24:11;4.88;;;4.13;;
17955;SDS011;27666;51.498;11.966;2023-06-14T12:26:58;4.90;;;3.60;;
17955;SDS011;27666;51.498;11.966;2023-06-14T12:29:47;7.60;;;4.13;;
17955;SDS011;27666;51.498;11.966;2023-06-14T12:32:44;4.25;;;3.85;;
17955;SDS011;27666;51.498;11.966;2023-06-14T12:35:33;6.38;;;4.00;;
17955;SDS011;27666;51.498;11.966;2023-06-14T12:38:19;5.22;;;4.15;;
17955;SDS011;27666;51.498;11.966;2023-06-14T12:41:07;3.92;;;3.47;;
17955;SDS011;27666;51.498;11.966;2023-06-14T12:43:53;5.95;;;4.13;;
17955;SDS011;27666;51.498;11.966;2023-06-14T12:46:40;4.78;;;3.95;;
17955;SDS011;27666;51.498;11.966;2023-06-14T12:49:28;4.55;;;3.92;;
17955;SDS011;27666;51.498;11.966;2023-06-14T12:52:16;5.30;;;4.13;;
17955;SDS011;27666;51.498;11.966;2023-06-14T12:55:03;5.05;;;4.20;;
17955;SDS011;27666;51.498;11.966;2023-06-14T12:57:51;6.15;;;4.43;;
17955;SDS011;27666;51.498;11.966;2023-06-14T13:00:38;5.28;;;4.20;;
17955;SDS011;27666;51.498;11.966;2023-06-14T13:03:24;5.90;;;4.47;;
17955;SDS011;27666;51.498;11.966;2023-06-14T13:06:11;4.40;;;4.00;;
17955;SDS011;27666;51.498;11.966;2023-06-14T13:08:59;6.00;;;4.35;;
17955;SDS011;27666;51.498;11.966;2023-06-14T13:11:47;6.00;;;4.53;;
17955;SDS011;27666;51.498;11.966;2023-06-14T13:14:33;4.85;;;3.95;;
17955;SDS011;27666;51.498;11.966;2023-06-14T13:17:19;7.47;;;4.18;;
17955;SDS011;27666;51.498;11.966;2023-06-14T13:20:06;5.03;;;3.78;;
17955;SDS011;27666;51.498;11.966;2023-06-14T13:22:54;5.03;;;4.47;;
17955;SDS011;27666;51.498;11.966;2023-06-14T13:25:42;5.53;;;3.88;;
17955;SDS011;27666;51.498;11.966;2023-06-14T13:28:29;5.18;;;3.85;;
17955;SDS011;27666;51.498;11.966;2023-06-14T13:31:17;7.10;;;3.88;;
17955;SDS011;27666;51.498;11.966;2023-06-14T13:34:03;4.40;;;3.92;;
17955;SDS011;27666;51.498;11.966;2023-06-14T13:36:50;5.18;;;3.78;;
17955;SDS011;27666;51.498;11.966;2023-06-14T13:39:36;3.92;;;3.53;;
17955;SDS011;27666;51.498;11.966;2023-06-14T13:42:24;6.68;;;3.60;;
17955;SDS011;27666;51.498;11.966;2023-06-14T13:45:11;8.80;;;3.70;;
17955;SDS011;27666;51.498;11.966;2023-06-14T13:47:58;4.65;;;3.78;;
17955;SDS011;27666;51.498;11.966;2023-06-14T13:50:46;4.80;;;3.92;;
17955;SDS011;27666;51.498;11.966;2023-06-14T13:53:33;8.88;;;4.78;;
17955;SDS011;27666;51.498;11.966;2023-06-14T13:56:20;5.10;;;3.97;;
17955;SDS011;27666;51.498;11.966;2023-06-14T13:59:10;6.05;;;3.92;;
17955;SDS011;27666;51.498;11.966;2023-06-14T14:02:00;4.45;;;3.80;;
17955;SDS011;27666;51.498;11.966;2023-06-14T14:04:46;7.65;;;3.80;;
17955;SDS011;27666;51.498;11.966;2023-06-14T14:07:37;6.20;;;4.18;;
17955;SDS011;27666;51.498;11.966;2023-06-14T14:10:24;8.50;;;4.15;;
17955;SDS011;27666;51.498;11.966;2023-06-14T14:13:12;5.82;;;4.22;;
17955;SDS011;27666;51.498;11.966;2023-06-14T14:16:00;6.63;;;3.95;;
17955;SDS011;27666;51.498;11.966;2023-06-14T14:18:47;4.10;;;3.45;;
17955;SDS011;27666;51.498;11.966;2023-06-14T14:21:34;6.00;;;3.70;;
17955;SDS011;27666;51.498;11.966;2023-06-14T14:24:21;5.13;;;3.60;;
17955;SDS011;27666;51.498;11.966;2023-06-14T14:27:09;4.38;;;3.97;;
17955;SDS011;27666;51.498;11.966;2023-06-14T14:29:56;5.90;;;4.10;;
17955;SDS011;27666;51.498;11.966;2023-06-14T14:32:44;6.78;;;3.90;;
17955;SDS011;27666;51.498;11.966;2023-06-14T14:35:32;6.95;;;3.63;;
17955;SDS011;27666;51.498;11.966;2023-06-14T14:38:19;6.40;;;4.00;;
17955;SDS011;27666;51.498;11.966;2023-06-14T14:41:07;4.22;;;3.83;;
17955;SDS011;27666;51.498;11.966;2023-06-14T14:43:53;5.68;;;4.10;;
17955;SDS011;27666;51.498;11.966;2023-06-14T14:46:40;4.68;;;3.80;;
17955;SDS011;27666;51.498;11.966;2023-06-14T14:49:28;4.60;;;3.92;;
17955;SDS011;27666;51.498;11.966;2023-06-14T14:52:14;3.85;;;3.55;;
17955;SDS011;27666;51.498;11.966;2023-06-14T14:55:08;4.60;;;4.10;;
17955;SDS011;27666;51.498;11.966;2023-06-14T14:57:55;4.55;;;4.15;;
17955;SDS011;27666;51.498;11.966;2023-06-14T15:00:41;4.05;;;3.60;;
17955;SDS011;27666;51.498;11.966;2023-06-14T15:03:28;11.10;;;4.35;;
17955;SDS011;27666;51.498;11.966;2023-06-14T15:06:21;6.22;;;3.97;;
17955;SDS011;27666;51.498;11.966;2023-06-14T15:09:07;5.90;;;3.83;;
17955;SDS011;27666;51.498;11.966;2023-06-14T15:11:54;6.10;;;3.67;;
17955;SDS011;27666;51.498;11.966;2023-06-14T15:14:40;4.70;;;3.75;;
17955;SDS011;27666;51.498;11.966;2023-06-14T15:17:27;6.72;;;4.13;;
17955;SDS011;27666;51.498;11.966;2023-06-14T15:20:14;7.05;;;3.88;;
17955;SDS011;27666;51.498;11.966;2023-06-14T15:23:02;4.70;;;3.55;;
17955;SDS011;27666;51.498;11.966;2023-06-14T15:25:48;4.75;;;3.50;;
17955;SDS011;27666;51.498;11.966;2023-06-14T15:28:36;4.88;;;3.47;;
17955;SDS011;27666;51.498;11.966;2023-06-14T15:31:22;4.13;;;3.55;;
17955;SDS011;27666;51.498;11.966;2023-06-14T15:34:12;5.25;;;4.15;;
17955;SDS011;27666;51.498;11.966;2023-06-14T15:36:59;7.63;;;3.83;;
17955;SDS011;27666;51.498;11.966;2023-06-14T15:39:48;3.80;;;3.35;;
17955;SDS011;27666;51.498;11.966;2023-06-14T15:42:34;3.50;;;3.13;;
17955;SDS011;27666;51.498;11.966;2023-06-14T15:45:21;4.50;;;3.50;;
17955;SDS011;27666;51.498;11.966;2023-06-14T15:48:07;3.90;;;3.60;;
17955;SDS011;27666;51.498;11.966;2023-06-14T15:50:54;4.72;;;3.70;;
17955;SDS011;27666;51.498;11.966;2023-06-14T15:53:40;4.10;;;3.70;;
17955;SDS011;27666;51.498;11.966;2023-06-14T15:56:28;4.43;;;3.47;;
17955;SDS011;27666;51.498;11.966;2023-06-14T15:59:14;6.10;;;3.60;;
17955;SDS011;27666;51.498;11.966;2023-06-14T16:02:01;4.95;;;3.50;;
17955;SDS011;27666;51.498;11.966;2023-06-14T16:04:49;4.18;;;3.15;;
17955;SDS011;27666;51.498;11.966;2023-06-14T16:07:36;4.97;;;3.10;;
17955;SDS011;27666;51.498;11.966;2023-06-14T16:10:23;3.25;;;2.95;;
17955;SDS011;27666;51.498;11.966;2023-06-14T16:13:13;8.00;;;3.55;;
17955;SDS011;27666;51.498;11.966;2023-06-14T16:15:59;5.28;;;3.75;;
17955;SDS011;27666;51.498;11.966;2023-06-14T16:18:45;3.75;;;3.40;;
17955;SDS011;27666;51.498;11.966;2023-06-14T16:21:31;5.20;;;3.78;;
17955;SDS011;27666;51.498;11.966;2023-06-14T16:24:21;3.67;;;3.28;;
17955;SDS011;27666;51.498;11.966;2023-06-14T16:27:07;12.32;;;3.83;;
17955;SDS011;27666;51.498;11.966;2023-06-14T16:29:59;4.88;;;3.50;;
17955;SDS011;27666;51.498;11.966;2023-06-14T16:32:45;4.18;;;3.38;;
17955;SDS011;27666;51.498;11.966;2023-06-14T16:35:34;4.15;;;3.40;;
17955;SDS011;27666;51.498;11.966;2023-06-14T16:38:20;4.28;;;3.30;;